createdAt,value
2023-04-02T00:00:54.490Z,1001.91
2023-04-02T00:01:54.471Z,1001.97
2023-04-02T00:02:54.627Z,1002.01
2023-04-02T00:03:54.473Z,1001.99
2023-04-02T00:04:54.435Z,1002.05
2023-04-02T00:05:54.421Z,1002.04
2023-04-02T00:06:54.442Z,1002.06
2023-04-02T00:07:54.395Z,1002.07
2023-04-02T00:08:54.395Z,1002.09
2023-04-02T00:09:54.364Z,1002.15
2023-04-02T00:10:54.424Z,1002.12
2023-04-02T00:11:54.341Z,1002.17
2023-04-02T00:12:54.374Z,1002.20
2023-04-02T00:13:54.327Z,1002.19
2023-04-02T00:14:54.338Z,1002.19
2023-04-02T00:15:54.315Z,1002.22
2023-04-02T00:16:54.314Z,1002.24
2023-04-02T00:17:54.299Z,1002.25
2023-04-02T00:18:54.306Z,1002.27
2023-04-02T00:19:54.261Z,1002.33
2023-04-02T00:20:54.263Z,1002.36
2023-04-02T00:21:54.261Z,1002.36
2023-04-02T00:22:54.232Z,1002.42
2023-04-02T00:23:54.241Z,1002.42
2023-04-02T00:24:54.225Z,1002.44
2023-04-02T00:25:54.231Z,1002.44
2023-04-02T00:26:54.195Z,1002.45
2023-04-02T00:27:54.195Z,1002.49
2023-04-02T00:28:54.194Z,1002.52
2023-04-02T00:29:54.193Z,1002.52
2023-04-02T00:30:54.166Z,1002.57
2023-04-02T00:31:54.238Z,1002.54
2023-04-02T00:32:54.180Z,1002.58
2023-04-02T00:33:54.144Z,1002.59
2023-04-02T00:34:54.113Z,1002.60
2023-04-02T00:35:54.211Z,1002.63
2023-04-02T00:36:54.091Z,1002.66
2023-04-02T00:37:54.117Z,1002.69
2023-04-02T00:38:54.067Z,1002.71
2023-04-02T00:39:54.073Z,1002.71
2023-04-02T00:40:54.048Z,1002.75
2023-04-02T00:41:54.064Z,1002.75
2023-04-02T00:42:54.024Z,1002.75
2023-04-02T00:43:54.039Z,1002.77
2023-04-02T00:44:54.019Z,1002.80
2023-04-02T00:45:54.041Z,1002.80
2023-04-02T00:46:54.025Z,1002.85
2023-04-02T00:47:54.011Z,1002.85
2023-04-02T00:48:53.973Z,1002.86
2023-04-02T00:49:53.972Z,1002.87
2023-04-02T00:50:53.939Z,1002.88
2023-04-02T00:51:53.961Z,1002.88
2023-04-02T00:52:53.953Z,1002.94
2023-04-02T00:53:53.941Z,1002.94
2023-04-02T00:54:53.893Z,1002.96
2023-04-02T00:55:53.909Z,1003.00
2023-04-02T00:56:53.912Z,1002.98
2023-04-02T00:57:53.885Z,1003.03
2023-04-02T00:58:53.882Z,1003.07
2023-04-02T00:59:53.880Z,1003.07
2023-04-02T01:00:53.849Z,1003.10
2023-04-02T01:01:53.859Z,1003.12
2023-04-02T01:02:53.872Z,1003.12
2023-04-02T01:03:53.919Z,1003.12
2023-04-02T01:04:53.819Z,1003.17
2023-04-02T01:05:53.806Z,1003.16
2023-04-02T01:06:53.770Z,1003.17
2023-04-02T01:07:53.790Z,1003.19
2023-04-02T01:08:53.744Z,1003.24
2023-04-02T01:09:53.758Z,1003.26
2023-04-02T01:10:53.737Z,1003.25
2023-04-02T01:11:53.780Z,1003.29
2023-04-02T01:12:53.703Z,1003.32
2023-04-02T01:13:53.721Z,1003.32
2023-04-02T01:14:53.686Z,1003.36
2023-04-02T01:15:53.752Z,1003.35
2023-04-02T01:16:53.700Z,1003.39
2023-04-02T01:17:53.685Z,1003.39
2023-04-02T01:18:53.642Z,1003.40
2023-04-02T01:19:53.650Z,1003.45
2023-04-02T01:20:53.629Z,1003.45
2023-04-02T01:21:53.638Z,1003.48
2023-04-02T01:22:53.607Z,1003.50
2023-04-02T01:23:53.651Z,1003.49
2023-04-02T01:24:53.574Z,1003.53
2023-04-02T01:25:53.583Z,1003.57
2023-04-02T01:26:53.570Z,1003.59
2023-04-02T01:27:53.561Z,1003.59
2023-04-02T01:28:53.538Z,1003.59
2023-04-02T01:29:53.553Z,1003.64
2023-04-02T01:30:53.547Z,1003.66
2023-04-02T01:31:53.543Z,1003.69
2023-04-02T01:32:53.543Z,1003.74
2023-04-02T01:33:53.546Z,1003.77
2023-04-02T01:34:53.485Z,1003.79
2023-04-02T01:35:53.500Z,1003.81
2023-04-02T01:36:53.461Z,1003.83
2023-04-02T01:37:53.459Z,1003.86
2023-04-02T01:38:53.427Z,1003.87
2023-04-02T01:39:53.457Z,1003.89
2023-04-02T01:40:53.412Z,1003.91
2023-04-02T01:41:53.436Z,1003.90
2023-04-02T01:42:53.394Z,1003.95
2023-04-02T01:43:53.399Z,1003.94
2023-04-02T01:44:53.376Z,1003.97
2023-04-02T01:45:53.376Z,1003.98
2023-04-02T01:46:53.449Z,1004.00
2023-04-02T01:47:53.466Z,1004.02
2023-04-02T01:48:53.331Z,1004.03
2023-04-02T01:49:53.334Z,1004.03
2023-04-02T01:50:53.304Z,1004.06
2023-04-02T01:51:53.334Z,1004.09
2023-04-02T01:52:53.288Z,1004.12
2023-04-02T01:53:53.300Z,1004.14
2023-04-02T01:54:53.260Z,1004.09
2023-04-02T01:55:53.326Z,1004.15
2023-04-02T01:56:53.286Z,1004.16
2023-04-02T01:57:53.253Z,1004.15
2023-04-02T01:58:53.227Z,1004.17
2023-04-02T01:59:53.230Z,1004.19
2023-04-02T02:00:53.282Z,1004.21
2023-04-02T02:01:53.257Z,1004.25
2023-04-02T02:02:53.234Z,1004.25
2023-04-02T02:03:53.212Z,1004.32
2023-04-02T02:04:53.160Z,1004.35
2023-04-02T02:05:53.203Z,1004.37
2023-04-02T02:06:53.135Z,1004.37
2023-04-02T02:07:53.149Z,1004.40
2023-04-02T02:08:53.109Z,1004.37
2023-04-02T02:09:53.165Z,1004.39
2023-04-02T02:10:53.086Z,1004.46
2023-04-02T02:11:53.132Z,1004.49
2023-04-02T02:12:53.072Z,1004.50
2023-04-02T02:13:53.117Z,1004.49
2023-04-02T02:14:53.054Z,1004.52
2023-04-02T02:15:53.075Z,1004.54
2023-04-02T02:16:53.032Z,1004.56
2023-04-02T02:17:53.127Z,1004.60
2023-04-02T02:18:53.013Z,1004.61
2023-04-02T02:19:53.033Z,1004.60
2023-04-02T02:20:53.016Z,1004.62
2023-04-02T02:21:53.023Z,1004.62
2023-04-02T02:22:52.982Z,1004.64
2023-04-02T02:23:52.994Z,1004.67
2023-04-02T02:24:52.976Z,1004.72
2023-04-02T02:25:52.988Z,1004.75
2023-04-02T02:26:52.943Z,1004.78
2023-04-02T02:27:52.937Z,1004.77
2023-04-02T02:28:52.899Z,1004.80
2023-04-02T02:29:52.922Z,1004.85
2023-04-02T02:30:52.906Z,1004.82
2023-04-02T02:31:52.991Z,1004.88
2023-04-02T02:32:52.900Z,1004.88
2023-04-02T02:33:52.889Z,1004.89
2023-04-02T02:34:52.844Z,1004.91
2023-04-02T02:35:52.893Z,1004.91
2023-04-02T02:36:52.858Z,1004.92
2023-04-02T02:37:52.843Z,1004.94
2023-04-02T02:38:54.433Z,1004.97
2023-04-02T02:39:52.828Z,1004.97
2023-04-02T02:40:52.776Z,1005.03
2023-04-02T02:41:52.790Z,1005.05
2023-04-02T02:42:52.753Z,1005.02
2023-04-02T02:43:52.782Z,1005.03
2023-04-02T02:44:52.760Z,1005.09
2023-04-02T02:45:52.810Z,1005.10
2023-04-02T02:46:52.761Z,1005.13
2023-04-02T02:47:52.793Z,1005.13
2023-04-02T02:48:52.698Z,1005.16
2023-04-02T02:49:52.736Z,1005.18
2023-04-02T02:50:52.687Z,1005.19
2023-04-02T02:51:52.682Z,1005.20
2023-04-02T02:52:52.691Z,1005.23
2023-04-02T02:53:52.655Z,1005.24
2023-04-02T02:54:52.639Z,1005.27
2023-04-02T02:55:52.632Z,1005.29
2023-04-02T02:56:52.653Z,1005.31
2023-04-02T02:57:52.618Z,1005.32
2023-04-02T02:58:52.583Z,1005.37
2023-04-02T02:59:52.605Z,1005.36
2023-04-02T03:00:52.570Z,1005.42
2023-04-02T03:01:52.579Z,1005.43
2023-04-02T03:02:52.804Z,1005.42
2023-04-02T03:03:52.627Z,1005.47
2023-04-02T03:04:52.520Z,1005.47
2023-04-02T03:05:52.565Z,1005.49
2023-04-02T03:06:52.496Z,1005.51
2023-04-02T03:07:52.521Z,1005.54
2023-04-02T03:08:52.497Z,1005.57
2023-04-02T03:09:52.503Z,1005.58
2023-04-02T03:10:52.468Z,1005.60
2023-04-02T03:11:52.480Z,1005.61
2023-04-02T03:12:52.438Z,1005.62
2023-04-02T03:13:52.452Z,1005.64
2023-04-02T03:14:52.422Z,1005.71
2023-04-02T03:15:52.485Z,1005.72
2023-04-02T03:16:52.398Z,1005.73
2023-04-02T03:17:52.474Z,1005.76
2023-04-02T03:18:52.372Z,1005.78
2023-04-02T03:19:52.397Z,1005.79
2023-04-02T03:20:52.370Z,1005.80
2023-04-02T03:21:52.379Z,1005.83
2023-04-02T03:22:52.348Z,1005.85
2023-04-02T03:23:52.352Z,1005.85
2023-04-02T03:24:52.345Z,1005.85
2023-04-02T03:25:52.340Z,1005.92
2023-04-02T03:26:52.328Z,1005.91
2023-04-02T03:27:52.298Z,1005.92
2023-04-02T03:28:52.314Z,1005.97
2023-04-02T03:29:52.307Z,1006.01
2023-04-02T03:30:52.281Z,1005.98
2023-04-02T03:31:52.280Z,1006.03
2023-04-02T03:32:52.293Z,1006.03
2023-04-02T03:33:52.258Z,1006.04
2023-04-02T03:34:52.207Z,1006.07
2023-04-02T03:35:52.230Z,1006.10
2023-04-02T03:36:52.237Z,1006.08
2023-04-02T03:37:52.222Z,1006.16
2023-04-02T03:38:52.185Z,1006.13
2023-04-02T03:39:52.192Z,1006.18
2023-04-02T03:40:52.159Z,1006.20
2023-04-02T03:41:52.161Z,1006.25
2023-04-02T03:42:52.142Z,1006.25
2023-04-02T03:43:52.150Z,1006.26
2023-04-02T03:44:52.113Z,1006.29
2023-04-02T03:45:52.127Z,1006.30
2023-04-02T03:46:52.168Z,1006.31
2023-04-02T03:47:52.152Z,1006.35
2023-04-02T03:48:52.106Z,1006.35
2023-04-02T03:49:52.071Z,1006.38
2023-04-02T03:50:52.048Z,1006.39
2023-04-02T03:51:52.067Z,1006.40
2023-04-02T03:52:52.031Z,1006.42
2023-04-02T03:53:52.059Z,1006.45
2023-04-02T03:54:54.020Z,1006.48
2023-04-02T03:55:52.049Z,1006.49
2023-04-02T03:56:51.995Z,1006.49
2023-04-02T03:57:51.995Z,1006.54
2023-04-02T03:58:51.989Z,1006.58
2023-04-02T03:59:51.998Z,1006.61
2023-04-02T04:00:51.968Z,1006.63
2023-04-02T04:01:51.979Z,1006.63
2023-04-02T04:02:51.935Z,1006.66
2023-04-02T04:03:52.031Z,1006.72
2023-04-02T04:04:51.913Z,1006.70
2023-04-02T04:05:51.917Z,1006.74
2023-04-02T04:06:51.877Z,1006.71
2023-04-02T04:07:51.885Z,1006.79
2023-04-02T04:08:51.856Z,1006.78
2023-04-02T04:09:51.882Z,1006.81
2023-04-02T04:10:51.863Z,1006.83
2023-04-02T04:11:51.851Z,1006.83
2023-04-02T04:12:51.833Z,1006.87
2023-04-02T04:13:51.830Z,1006.89
2023-04-02T04:14:51.797Z,1006.91
2023-04-02T04:15:51.801Z,1006.93
2023-04-02T04:16:51.785Z,1006.96
2023-04-02T04:17:51.869Z,1006.98
2023-04-02T04:18:51.748Z,1006.99
2023-04-02T04:19:51.778Z,1007.03
2023-04-02T04:20:51.726Z,1007.06
2023-04-02T04:21:51.741Z,1007.07
2023-04-02T04:22:51.720Z,1007.12
2023-04-02T04:23:51.746Z,1007.11
2023-04-02T04:24:51.689Z,1007.15
2023-04-02T04:25:51.706Z,1007.16
2023-04-02T04:26:51.664Z,1007.24
2023-04-02T04:27:51.691Z,1007.25
2023-04-02T04:28:51.641Z,1007.27
2023-04-02T04:29:51.679Z,1007.31
2023-04-02T04:30:51.621Z,1007.32
2023-04-02T04:31:51.731Z,1007.35
2023-04-02T04:32:51.626Z,1007.40
2023-04-02T04:33:51.615Z,1007.40
2023-04-02T04:34:51.594Z,1007.44
2023-04-02T04:35:51.629Z,1007.47
2023-04-02T04:36:51.581Z,1007.48
2023-04-02T04:37:51.563Z,1007.51
2023-04-02T04:38:51.566Z,1007.53
2023-04-02T04:39:51.532Z,1007.59
2023-04-02T04:40:51.538Z,1007.61
2023-04-02T04:41:51.541Z,1007.59
2023-04-02T04:42:51.539Z,1007.61
2023-04-02T04:43:51.494Z,1007.63
2023-04-02T04:44:51.502Z,1007.65
2023-04-02T04:45:51.522Z,1007.62
2023-04-02T04:46:51.480Z,1007.70
2023-04-02T04:47:51.511Z,1007.67
2023-04-02T04:48:51.481Z,1007.72
2023-04-02T04:49:51.425Z,1007.74
2023-04-02T04:50:51.459Z,1007.76
2023-04-02T04:51:51.413Z,1007.80
2023-04-02T04:52:51.434Z,1007.82
2023-04-02T04:53:51.437Z,1007.87
2023-04-02T04:54:51.398Z,1007.88
2023-04-02T04:55:51.363Z,1007.91
2023-04-02T04:56:51.402Z,1007.93
2023-04-02T04:57:51.355Z,1007.95
2023-04-02T04:58:51.359Z,1007.99
2023-04-02T04:59:51.342Z,1008.00
2023-04-02T05:00:51.333Z,1008.05
2023-04-02T05:01:51.414Z,1008.06
2023-04-02T05:02:51.350Z,1008.06
2023-04-02T05:03:51.283Z,1008.12
2023-04-02T05:04:51.372Z,1008.12
2023-04-02T05:05:51.276Z,1008.12
2023-04-02T05:06:51.272Z,1008.13
2023-04-02T05:07:51.254Z,1008.18
2023-04-02T05:08:51.297Z,1008.18
2023-04-02T05:09:51.216Z,1008.24
2023-04-02T05:10:51.241Z,1008.23
2023-04-02T05:11:51.207Z,1008.25
2023-04-02T05:12:51.228Z,1008.25
2023-04-02T05:13:51.186Z,1008.29
2023-04-02T05:14:51.191Z,1008.32
2023-04-02T05:15:51.214Z,1008.40
2023-04-02T05:16:51.172Z,1008.36
2023-04-02T05:17:51.184Z,1008.36
2023-04-02T05:18:51.151Z,1008.44
2023-04-02T05:19:51.129Z,1008.43
2023-04-02T05:20:51.137Z,1008.52
2023-04-02T05:21:51.099Z,1008.50
2023-04-02T05:22:51.108Z,1008.55
2023-04-02T05:23:51.104Z,1008.57
2023-04-02T05:24:51.080Z,1008.59
2023-04-02T05:25:51.072Z,1008.62
2023-04-02T05:26:51.092Z,1008.62
2023-04-02T05:27:51.026Z,1008.67
2023-04-02T05:28:51.059Z,1008.67
2023-04-02T05:29:51.004Z,1008.68
2023-04-02T05:30:51.023Z,1008.72
2023-04-02T05:31:50.980Z,1008.79
2023-04-02T05:32:51.132Z,1008.78
2023-04-02T05:33:50.969Z,1008.80
2023-04-02T05:34:50.981Z,1008.84
2023-04-02T05:35:50.982Z,1008.86
2023-04-02T05:36:50.970Z,1008.88
2023-04-02T05:37:50.934Z,1008.92
2023-04-02T05:38:50.945Z,1008.93
2023-04-02T05:39:50.918Z,1008.97
2023-04-02T05:40:50.919Z,1008.97
2023-04-02T05:41:50.891Z,1009.01
2023-04-02T05:42:50.910Z,1009.03
2023-04-02T05:43:50.903Z,1009.06
2023-04-02T05:44:50.896Z,1009.03
2023-04-02T05:45:50.848Z,1009.10
2023-04-02T05:46:50.888Z,1009.13
2023-04-02T05:47:50.842Z,1009.16
2023-04-02T05:48:50.838Z,1009.17
2023-04-02T05:49:50.817Z,1009.20
2023-04-02T05:50:50.812Z,1009.22
2023-04-02T05:51:50.792Z,1009.23
2023-04-02T05:52:50.799Z,1009.29
2023-04-02T05:53:50.783Z,1009.28
2023-04-02T05:54:50.778Z,1009.30
2023-04-02T05:55:54.810Z,1009.35
2023-04-02T05:56:50.805Z,1009.33
2023-04-02T05:58:06.975Z,1009.40
2023-04-02T05:58:50.786Z,1009.44
2023-04-02T05:59:50.702Z,1009.39
2023-04-02T06:00:50.717Z,1009.46
2023-04-02T06:01:50.747Z,1009.46
2023-04-02T06:02:50.764Z,1009.49
2023-04-02T06:03:50.689Z,1009.52
2023-04-02T06:04:50.676Z,1009.52
2023-04-02T06:05:50.638Z,1009.54
2023-04-02T06:06:50.703Z,1009.53
2023-04-02T06:07:50.628Z,1009.58
2023-04-02T06:08:50.629Z,1009.58
2023-04-02T06:09:50.598Z,1009.58
2023-04-02T06:10:50.622Z,1009.59
2023-04-02T06:11:50.577Z,1009.61
2023-04-02T06:12:50.597Z,1009.65
2023-04-02T06:13:50.562Z,1009.64
2023-04-02T06:14:50.570Z,1009.68
2023-04-02T06:15:50.533Z,1009.69
2023-04-02T06:16:50.602Z,1009.73
2023-04-02T06:17:50.582Z,1009.76
2023-04-02T06:18:50.526Z,1009.80
2023-04-02T06:19:50.516Z,1009.81
2023-04-02T06:20:50.508Z,1009.84
2023-04-02T06:21:50.467Z,1009.84
2023-04-02T06:22:50.483Z,1009.90
2023-04-02T06:23:50.444Z,1009.92
2023-04-02T06:24:50.492Z,1009.91
2023-04-02T06:25:50.444Z,1009.95
2023-04-02T06:26:50.450Z,1009.97
2023-04-02T06:27:50.429Z,1009.99
2023-04-02T06:28:50.425Z,1010.01
2023-04-02T06:29:50.384Z,1010.04
2023-04-02T06:30:50.489Z,1010.03
2023-04-02T06:31:50.365Z,1010.06
2023-04-02T06:32:50.435Z,1010.09
2023-04-02T06:33:50.347Z,1010.11
2023-04-02T06:34:50.363Z,1010.13
2023-04-02T06:35:50.355Z,1010.15
2023-04-02T06:36:50.367Z,1010.16
2023-04-02T06:37:50.310Z,1010.19
2023-04-02T06:38:50.327Z,1010.18
2023-04-02T06:39:50.286Z,1010.20
2023-04-02T06:40:50.327Z,1010.24
2023-04-02T06:41:50.287Z,1010.27
2023-04-02T06:42:50.280Z,1010.30
2023-04-02T06:43:50.248Z,1010.29
2023-04-02T06:44:50.261Z,1010.33
2023-04-02T06:45:50.263Z,1010.36
2023-04-02T06:46:52.434Z,1010.37
2023-04-02T06:47:50.250Z,1010.40
2023-04-02T06:48:50.217Z,1010.42
2023-04-02T06:49:50.188Z,1010.44
2023-04-02T06:50:50.205Z,1010.47
2023-04-02T06:51:50.163Z,1010.44
2023-04-02T06:52:50.212Z,1010.53
2023-04-02T06:53:50.152Z,1010.53
2023-04-02T06:54:50.162Z,1010.57
2023-04-02T06:55:50.120Z,1010.57
2023-04-02T06:56:50.155Z,1010.63
2023-04-02T06:57:50.098Z,1010.65
2023-04-02T06:58:50.123Z,1010.69
2023-04-02T06:59:50.074Z,1010.68
2023-04-02T07:00:50.090Z,1010.69
2023-04-02T07:01:50.120Z,1010.74
2023-04-02T07:02:50.109Z,1010.73
2023-04-02T07:03:50.056Z,1010.78
2023-04-02T07:04:50.095Z,1010.79
2023-04-02T07:05:50.009Z,1010.80
2023-04-02T07:06:50.028Z,1010.86
2023-04-02T07:07:49.990Z,1010.88
2023-04-02T07:08:50.013Z,1010.91
2023-04-02T07:09:49.986Z,1010.92
2023-04-02T07:10:49.979Z,1010.93
2023-04-02T07:11:49.958Z,1010.97
2023-04-02T07:12:49.977Z,1010.99
2023-04-02T07:13:49.940Z,1011.04
2023-04-02T07:14:49.949Z,1011.03
2023-04-02T07:15:49.964Z,1011.05
2023-04-02T07:16:49.921Z,1011.10
2023-04-02T07:17:49.922Z,1011.08
2023-04-02T07:18:49.894Z,1011.13
2023-04-02T07:19:49.959Z,1011.16
2023-04-02T07:20:52.020Z,1011.18
2023-04-02T07:21:49.838Z,1011.18
2023-04-02T07:22:49.850Z,1011.24
2023-04-02T07:23:49.816Z,1011.28
2023-04-02T07:24:49.829Z,1011.27
2023-04-02T07:25:49.824Z,1011.29
2023-04-02T07:26:49.829Z,1011.35
2023-04-02T07:27:49.774Z,1011.38
2023-04-02T07:28:49.824Z,1011.38
2023-04-02T07:29:49.755Z,1011.41
2023-04-02T07:30:49.766Z,1011.44
2023-04-02T07:31:49.887Z,1011.44
2023-04-02T07:32:49.775Z,1011.48
2023-04-02T07:33:49.723Z,1011.47
2023-04-02T07:34:49.732Z,1011.49
2023-04-02T07:35:49.716Z,1011.53
2023-04-02T07:36:49.726Z,1011.46
2023-04-02T07:37:49.689Z,1011.53
2023-04-02T07:38:49.681Z,1011.49
2023-04-02T07:39:49.650Z,1011.55
2023-04-02T07:40:49.675Z,1011.57
2023-04-02T07:41:49.642Z,1011.58
2023-04-02T07:42:49.686Z,1011.63
2023-04-02T07:43:49.656Z,1011.66
2023-04-02T07:44:49.640Z,1011.67
2023-04-02T07:45:49.600Z,1011.62
2023-04-02T07:46:49.616Z,1011.73
2023-04-02T07:47:49.623Z,1011.73
2023-04-02T07:48:49.590Z,1011.72
2023-04-02T07:49:49.565Z,1011.76
2023-04-02T07:50:49.565Z,1011.81
2023-04-02T07:51:49.526Z,1011.83
2023-04-02T07:52:49.540Z,1011.84
2023-04-02T07:53:49.511Z,1011.88
2023-04-02T07:54:49.520Z,1011.87
2023-04-02T07:55:49.521Z,1011.89
2023-04-02T07:56:49.567Z,1011.96
2023-04-02T07:57:49.474Z,1011.93
2023-04-02T07:58:49.484Z,1011.98
2023-04-02T07:59:49.446Z,1011.97
2023-04-02T08:00:49.458Z,1012.02
2023-04-02T08:01:49.469Z,1011.98
2023-04-02T08:02:49.467Z,1011.96
2023-04-02T08:03:49.773Z,1012.06
2023-04-02T08:04:49.418Z,1012.03
2023-04-02T08:05:49.402Z,1012.05
2023-04-02T08:06:49.405Z,1012.04
2023-04-02T08:07:49.380Z,1012.07
2023-04-02T08:08:49.370Z,1012.13
2023-04-02T08:09:49.339Z,1012.12
2023-04-02T08:10:49.361Z,1012.16
2023-04-02T08:11:49.323Z,1012.16
2023-04-02T08:12:49.343Z,1012.19
2023-04-02T08:13:49.315Z,1012.22
2023-04-02T08:14:49.310Z,1012.22
2023-04-02T08:15:49.273Z,1012.26
2023-04-02T08:16:49.403Z,1012.31
2023-04-02T08:17:49.298Z,1012.29
2023-04-02T08:18:49.276Z,1012.30
2023-04-02T08:19:55.167Z,1012.33
2023-04-02T08:20:49.250Z,1012.36
2023-04-02T08:21:49.214Z,1012.41
2023-04-02T08:22:49.243Z,1012.40
2023-04-02T08:23:49.193Z,1012.43
2023-04-02T08:24:49.217Z,1012.48
2023-04-02T08:25:49.202Z,1012.48
2023-04-02T08:26:49.180Z,1012.50
2023-04-02T08:27:49.152Z,1012.48
2023-04-02T08:28:49.168Z,1012.54
2023-04-02T08:29:49.148Z,1012.56
2023-04-02T08:30:49.248Z,1012.58
2023-04-02T08:31:49.123Z,1012.59
2023-04-02T08:32:49.151Z,1012.66
2023-04-02T08:33:49.092Z,1012.66
2023-04-02T08:34:49.107Z,1012.64
2023-04-02T08:35:49.113Z,1012.65
2023-04-02T08:36:49.092Z,1012.68
2023-04-02T08:37:49.066Z,1012.73
2023-04-02T08:38:49.114Z,1012.71
2023-04-02T08:39:49.047Z,1012.74
2023-04-02T08:40:49.042Z,1012.75
2023-04-02T08:41:49.018Z,1012.73
2023-04-02T08:42:49.017Z,1012.78
2023-04-02T08:43:48.996Z,1012.80
2023-04-02T08:44:49.010Z,1012.87
2023-04-02T08:45:49.023Z,1012.81
2023-04-02T08:46:48.971Z,1012.84
2023-04-02T08:47:48.993Z,1012.75
2023-04-02T08:48:48.965Z,1012.80
2023-04-02T08:49:48.934Z,1012.89
2023-04-02T08:50:48.941Z,1012.90
2023-04-02T08:51:49.027Z,1012.98
2023-04-02T08:52:48.895Z,1012.99
2023-04-02T08:53:48.898Z,1012.97
2023-04-02T08:54:48.890Z,1012.99
2023-04-02T08:55:48.904Z,1013.00
2023-04-02T08:56:48.871Z,1013.03
2023-04-02T08:57:48.885Z,1013.07
2023-04-02T08:58:48.827Z,1013.04
2023-04-02T08:59:48.836Z,1013.14
2023-04-02T09:00:48.814Z,1013.10
2023-04-02T09:01:48.825Z,1013.14
2023-04-02T09:02:48.835Z,1013.16
2023-04-02T09:03:48.797Z,1013.20
2023-04-02T09:04:48.795Z,1013.16
2023-04-02T09:05:48.793Z,1013.21
2023-04-02T09:06:48.746Z,1013.17
2023-04-02T09:07:48.753Z,1013.18
2023-04-02T09:08:48.739Z,1013.20
2023-04-02T09:09:48.777Z,1013.17
2023-04-02T09:10:48.693Z,1013.18
2023-04-02T09:11:48.706Z,1013.19
2023-04-02T09:12:48.686Z,1013.18
2023-04-02T09:13:48.687Z,1013.21
2023-04-02T09:14:48.657Z,1013.24
2023-04-02T09:15:48.761Z,1013.27
2023-04-02T09:16:48.631Z,1013.28
2023-04-02T09:17:54.233Z,1013.29
2023-04-02T09:18:48.657Z,1013.33
2023-04-02T09:19:48.621Z,1013.33
2023-04-02T09:20:48.598Z,1013.31
2023-04-02T09:21:48.606Z,1013.34
2023-04-02T09:22:48.605Z,1013.33
2023-04-02T09:23:48.592Z,1013.36
2023-04-02T09:24:48.594Z,1013.39
2023-04-02T09:26:00.938Z,1013.41
2023-04-02T09:26:48.529Z,1013.44
2023-04-02T09:27:48.544Z,1013.45
2023-04-02T09:28:48.512Z,1013.49
2023-04-02T09:29:48.517Z,1013.49
2023-04-02T09:30:48.506Z,1013.51
2023-04-02T09:31:48.558Z,1013.54
2023-04-02T09:32:48.502Z,1013.60
2023-04-02T09:33:48.546Z,1013.60
2023-04-02T09:34:48.444Z,1013.61
2023-04-02T09:35:48.510Z,1013.65
2023-04-02T09:36:48.422Z,1013.66
2023-04-02T09:37:48.451Z,1013.65
2023-04-02T09:38:48.411Z,1013.72
2023-04-02T09:39:48.424Z,1013.72
2023-04-02T09:40:48.395Z,1013.74
2023-04-02T09:41:59.093Z,1013.74
2023-04-02T09:42:48.364Z,1013.78
2023-04-02T09:43:48.371Z,1013.78
2023-04-02T09:44:48.340Z,1013.80
2023-04-02T09:45:48.351Z,1013.81
2023-04-02T09:46:48.394Z,1013.83
2023-04-02T09:47:48.353Z,1013.84
2023-04-02T09:48:48.300Z,1013.89
2023-04-02T09:49:48.311Z,1013.92
2023-04-02T09:50:48.285Z,1013.92
2023-04-02T09:51:48.328Z,1013.98
2023-04-02T09:52:48.303Z,1013.97
2023-04-02T09:53:48.267Z,1014.00
2023-04-02T09:54:48.255Z,1013.98
2023-04-02T09:55:48.263Z,1014.01
2023-04-02T09:56:48.280Z,1013.98
2023-04-02T09:57:48.258Z,1014.04
2023-04-02T09:58:48.186Z,1014.05
2023-04-02T09:59:48.200Z,1014.08
2023-04-02T10:00:48.216Z,1014.07
2023-04-02T10:01:48.203Z,1014.12
2023-04-02T10:02:48.149Z,1014.15
2023-04-02T10:03:48.189Z,1014.17
2023-04-02T10:04:48.735Z,1014.16
2023-04-02T10:05:48.136Z,1014.18
2023-04-02T10:06:48.109Z,1014.22
2023-04-02T10:07:48.118Z,1014.19
2023-04-02T10:08:48.105Z,1014.23
2023-04-02T10:09:48.090Z,1014.26
2023-04-02T10:10:48.066Z,1014.27
2023-04-02T10:11:48.083Z,1014.32
2023-04-02T10:12:48.042Z,1014.33
2023-04-02T10:13:48.057Z,1014.33
2023-04-02T10:14:48.031Z,1014.37
2023-04-02T10:15:48.060Z,1014.38
2023-04-02T10:16:48.052Z,1014.39
2023-04-02T10:17:48.018Z,1014.36
2023-04-02T10:18:47.997Z,1014.42
2023-04-02T10:19:48.017Z,1014.44
2023-04-02T10:20:51.289Z,1014.43
2023-04-02T10:21:47.999Z,1014.47
2023-04-02T10:22:47.930Z,1014.48
2023-04-02T10:23:47.951Z,1014.51
2023-04-02T10:24:47.922Z,1014.53
2023-04-02T10:25:47.936Z,1014.53
2023-04-02T10:26:47.905Z,1014.61
2023-04-02T10:27:47.909Z,1014.55
2023-04-02T10:28:47.874Z,1014.57
2023-04-02T10:29:47.884Z,1014.59
2023-04-02T10:30:47.887Z,1014.61
2023-04-02T10:31:47.877Z,1014.61
2023-04-02T10:32:47.875Z,1014.65
2023-04-02T10:33:47.855Z,1014.67
2023-04-02T10:34:47.822Z,1014.67
2023-04-02T10:35:47.877Z,1014.71
2023-04-02T10:36:47.804Z,1014.70
2023-04-02T10:37:47.813Z,1014.73
2023-04-02T10:38:47.769Z,1014.75
2023-04-02T10:39:47.794Z,1014.75
2023-04-02T10:40:47.758Z,1014.78
2023-04-02T10:41:47.757Z,1014.78
2023-04-02T10:42:47.721Z,1014.79
2023-04-02T10:43:47.750Z,1014.84
2023-04-02T10:44:47.702Z,1014.84
2023-04-02T10:45:47.773Z,1014.85
2023-04-02T10:46:47.686Z,1014.88
2023-04-02T10:47:47.715Z,1014.85
2023-04-02T10:48:47.701Z,1014.89
2023-04-02T10:49:47.693Z,1014.85
2023-04-02T10:50:47.639Z,1014.87
2023-04-02T10:51:47.661Z,1014.89
2023-04-02T10:52:47.630Z,1014.92
2023-04-02T10:53:47.634Z,1014.91
2023-04-02T10:54:47.601Z,1014.94
2023-04-02T10:55:47.629Z,1014.93
2023-04-02T10:56:51.047Z,1014.98
2023-04-02T10:57:47.598Z,1014.98
2023-04-02T10:58:47.566Z,1014.99
2023-04-02T10:59:47.577Z,1014.98
2023-04-02T11:00:47.574Z,1014.99
2023-04-02T11:01:47.641Z,1015.01
2023-04-02T11:02:47.632Z,1015.03
2023-04-02T11:03:47.599Z,1015.06
2023-04-02T11:04:47.502Z,1015.08
2023-04-02T11:05:47.535Z,1015.08
2023-04-02T11:06:47.497Z,1015.08
2023-04-02T11:07:47.486Z,1015.06
2023-04-02T11:08:47.471Z,1015.12
2023-04-02T11:09:47.471Z,1015.13
2023-04-02T11:10:47.438Z,1015.12
2023-04-02T11:11:47.484Z,1015.11
2023-04-02T11:12:47.406Z,1015.12
2023-04-02T11:13:47.420Z,1015.14
2023-04-02T11:14:47.390Z,1015.13
2023-04-02T11:15:47.417Z,1015.13
2023-04-02T11:16:47.435Z,1015.13
2023-04-02T11:17:47.422Z,1015.20
2023-04-02T11:18:47.344Z,1015.22
2023-04-02T11:19:47.373Z,1015.22
2023-04-02T11:20:47.332Z,1015.22
2023-04-02T11:21:58.025Z,1015.24
2023-04-02T11:22:47.341Z,1015.30
2023-04-02T11:23:47.318Z,1015.32
2023-04-02T11:24:47.290Z,1015.27
2023-04-02T11:25:47.314Z,1015.29
2023-04-02T11:26:47.268Z,1015.29
2023-04-02T11:27:47.281Z,1015.28
2023-04-02T11:28:47.248Z,1015.29
2023-04-02T11:29:47.252Z,1015.29
2023-04-02T11:30:47.234Z,1015.33
2023-04-02T11:31:47.378Z,1015.29
2023-04-02T11:32:47.234Z,1015.34
2023-04-02T11:33:49.577Z,1015.32
2023-04-02T11:34:53.668Z,1015.39
2023-04-02T11:35:47.248Z,1015.38
2023-04-02T11:36:47.152Z,1015.39
2023-04-02T11:37:47.170Z,1015.42
2023-04-02T11:38:47.130Z,1015.38
2023-04-02T11:39:47.155Z,1015.41
2023-04-02T11:40:47.110Z,1015.45
2023-04-02T11:41:47.121Z,1015.40
2023-04-02T11:42:47.100Z,1015.45
2023-04-02T11:43:47.104Z,1015.49
2023-04-02T11:44:47.094Z,1015.48
2023-04-02T11:45:52.738Z,1015.51
2023-04-02T11:46:47.167Z,1015.52
2023-04-02T11:47:47.105Z,1015.52
2023-04-02T11:48:47.036Z,1015.55
2023-04-02T11:49:47.040Z,1015.55
2023-04-02T11:50:47.030Z,1015.53
2023-04-02T11:51:47.016Z,1015.55
2023-04-02T11:52:46.985Z,1015.55
2023-04-02T11:53:47.032Z,1015.58
2023-04-02T11:54:46.967Z,1015.59
2023-04-02T11:55:47.058Z,1015.58
2023-04-02T11:56:46.941Z,1015.55
2023-04-02T11:57:46.977Z,1015.59
2023-04-02T11:58:46.916Z,1015.62
2023-04-02T11:59:46.932Z,1015.61
2023-04-02T12:00:46.899Z,1015.62
2023-04-02T12:01:46.947Z,1015.65
2023-04-02T12:02:47.007Z,1015.67
2023-04-02T12:03:46.890Z,1015.68
2023-04-02T12:04:46.862Z,1015.67
2023-04-02T12:05:46.992Z,1015.69